sensor_id;sensor_type;location;lat;lon;timestamp;temperature;humidity
16674;DHT22;8450;52.654;10.326;2023-05-10T04:24:08;11.30;99.90
16674;DHT22;8450;52.654;10.326;2023-05-10T04:26:33;11.30;99.90
16674;DHT22;8450;52.654;10.326;2023-05-10T04:28:59;11.30;99.90
16674;DHT22;8450;52.654;10.326;2023-05-10T04:31:24;11.30;99.90
16674;DHT22;8450;52.654;10.326;2023-05-10T04:33:50;11.30;99.90
16674;DHT22;8450;52.654;10.326;2023-05-10T04:36:15;11.30;99.90
16674;DHT22;8450;52.654;10.326;2023-05-10T04:38:41;11.30;99.90
16674;DHT22;8450;52.654;10.326;2023-05-10T04:41:08;11.30;99.90
16674;DHT22;8450;52.654;10.326;2023-05-10T04:43:34;11.30;99.90
16674;DHT22;8450;52.654;10.326;2023-05-10T04:46:00;11.40;99.90
16674;DHT22;8450;52.654;10.326;2023-05-10T04:48:26;11.40;99.90
16674;DHT22;8450;52.654;10.326;2023-05-10T04:50:52;11.40;99.90
16674;DHT22;8450;52.654;10.326;2023-05-10T04:53:17;11.40;99.90
16674;DHT22;8450;52.654;10.326;2023-05-10T04:55:43;11.40;99.90
16674;DHT22;8450;52.654;10.326;2023-05-10T04:58:08;11.50;99.90
16674;DHT22;8450;52.654;10.326;2023-05-10T05:00:34;11.50;99.90
16674;DHT22;8450;52.654;10.326;2023-05-10T05:02:59;11.50;99.90
16674;DHT22;8450;52.654;10.326;2023-05-10T05:05:25;11.60;99.90
16674;DHT22;8450;52.654;10.326;2023-05-10T05:07:50;11.60;99.90
16674;DHT22;8450;52.654;10.326;2023-05-10T05:10:16;11.70;99.90
16674;DHT22;8450;52.654;10.326;2023-05-10T05:12:42;11.70;99.90
16674;DHT22;8450;52.654;10.326;2023-05-10T05:15:07;11.70;99.90
16674;DHT22;8450;52.654;10.326;2023-05-10T05:17:36;11.80;99.90
16674;DHT22;8450;52.654;10.326;2023-05-10T05:20:02;11.80;99.90
16674;DHT22;8450;52.654;10.326;2023-05-10T05:22:28;11.80;99.90
16674;DHT22;8450;52.654;10.326;2023-05-10T05:24:54;11.90;99.90
16674;DHT22;8450;52.654;10.326;2023-05-10T05:27:20;11.90;99.90
16674;DHT22;8450;52.654;10.326;2023-05-10T05:29:56;12.00;99.90
16674;DHT22;8450;52.654;10.326;2023-05-10T05:32:22;12.00;99.90
16674;DHT22;8450;52.654;10.326;2023-05-10T05:34:48;12.00;99.90
16674;DHT22;8450;52.654;10.326;2023-05-10T05:37:15;12.00;99.90
16674;DHT22;8450;52.654;10.326;2023-05-10T05:39:40;12.10;99.90
16674;DHT22;8450;52.654;10.326;2023-05-10T05:42:06;12.10;99.90
16674;DHT22;8450;52.654;10.326;2023-05-10T05:44:31;12.10;99.90
16674;DHT22;8450;52.654;10.326;2023-05-10T05:46:57;12.10;99.90
16674;DHT22;8450;52.654;10.326;2023-05-10T05:49:22;12.20;99.90
16674;DHT22;8450;52.654;10.326;2023-05-10T05:51:48;12.20;99.90
16674;DHT22;8450;52.654;10.326;2023-05-10T05:54:15;12.20;99.90
16674;DHT22;8450;52.654;10.326;2023-05-10T05:56:41;12.20;99.90
16674;DHT22;8450;52.654;10.326;2023-05-10T05:59:07;12.20;99.90
16674;DHT22;8450;52.654;10.326;2023-05-10T06:01:33;12.20;99.90
16674;DHT22;8450;52.654;10.326;2023-05-10T06:03:58;12.20;99.90
16674;DHT22;8450;52.654;10.326;2023-05-10T06:06:24;12.30;99.90
16674;DHT22;8450;52.654;10.326;2023-05-10T06:08:49;12.30;99.90
16674;DHT22;8450;52.654;10.326;2023-05-10T06:11:15;12.30;99.90
16674;DHT22;8450;52.654;10.326;2023-05-10T06:13:40;12.30;99.90
16674;DHT22;8450;52.654;10.326;2023-05-10T06:16:07;12.30;99.90
16674;DHT22;8450;52.654;10.326;2023-05-10T06:18:33;12.30;99.90
16674;DHT22;8450;52.654;10.326;2023-05-10T06:20:58;12.40;99.90
16674;DHT22;8450;52.654;10.326;2023-05-10T06:23:24;12.40;99.90
16674;DHT22;8450;52.654;10.326;2023-05-10T06:25:51;12.40;99.90
16674;DHT22;8450;52.654;10.326;2023-05-10T06:28:16;12.40;99.90
16674;DHT22;8450;52.654;10.326;2023-05-10T06:30:42;12.40;99.90
16674;DHT22;8450;52.654;10.326;2023-05-10T06:33:08;12.50;99.90
16674;DHT22;8450;52.654;10.326;2023-05-10T06:35:33;12.40;99.90
16674;DHT22;8450;52.654;10.326;2023-05-10T06:37:59;12.50;99.90
16674;DHT22;8450;52.654;10.326;2023-05-10T06:40:25;12.50;99.90
16674;DHT22;8450;52.654;10.326;2023-05-10T06:42:50;12.50;99.90
16674;DHT22;8450;52.654;10.326;2023-05-10T06:45:16;12.50;99.90
16674;DHT22;8450;52.654;10.326;2023-05-10T06:47:42;12.60;99.90
16674;DHT22;8450;52.654;10.326;2023-05-10T06:50:08;12.60;99.90
16674;DHT22;8450;52.654;10.326;2023-05-10T06:52:34;12.70;99.90
16674;DHT22;8450;52.654;10.326;2023-05-10T06:54:59;12.70;99.90
16674;DHT22;8450;52.654;10.326;2023-05-10T06:57:25;12.70;99.90
16674;DHT22;8450;52.654;10.326;2023-05-10T06:59:51;12.70;99.90
16674;DHT22;8450;52.654;10.326;2023-05-10T07:02:17;12.70;99.90
16674;DHT22;8450;52.654;10.326;2023-05-10T07:04:43;12.70;99.90
16674;DHT22;8450;52.654;10.326;2023-05-10T07:07:08;12.70;99.90
16674;DHT22;8450;52.654;10.326;2023-05-10T07:09:34;12.80;99.90
16674;DHT22;8450;52.654;10.326;2023-05-10T07:11:59;12.80;99.90
16674;DHT22;8450;52.654;10.326;2023-05-10T07:14:27;12.80;99.90
16674;DHT22;8450;52.654;10.326;2023-05-10T07:16:52;12.80;99.90
16674;DHT22;8450;52.654;10.326;2023-05-10T07:19:18;12.80;99.90
16674;DHT22;8450;52.654;10.326;2023-05-10T07:21:44;12.90;99.90
16674;DHT22;8450;52.654;10.326;2023-05-10T07:24:10;12.80;99.90
16674;DHT22;8450;52.654;10.326;2023-05-10T07:26:36;12.90;99.90
16674;DHT22;8450;52.654;10.326;2023-05-10T07:29:01;12.90;99.90
16674;DHT22;8450;52.654;10.326;2023-05-10T07:31:27;12.90;99.90
16674;DHT22;8450;52.654;10.326;2023-05-10T07:33:53;13.00;99.90
16674;DHT22;8450;52.654;10.326;2023-05-10T07:36:19;13.00;99.90
16674;DHT22;8450;52.654;10.326;2023-05-10T07:38:44;13.00;99.90
16674;DHT22;8450;52.654;10.326;2023-05-10T07:41:11;13.00;99.90
16674;DHT22;8450;52.654;10.326;2023-05-10T07:43:37;13.00;99.90
16674;DHT22;8450;52.654;10.326;2023-05-10T07:46:02;13.10;99.90
16674;DHT22;8450;52.654;10.326;2023-05-10T07:48:28;13.10;99.90
16674;DHT22;8450;52.654;10.326;2023-05-10T07:50:53;13.10;99.90
16674;DHT22;8450;52.654;10.326;2023-05-10T07:53:19;13.10;99.90
16674;DHT22;8450;52.654;10.326;2023-05-10T07:55:50;13.10;99.90
16674;DHT22;8450;52.654;10.326;2023-05-10T07:58:16;13.10;99.90
16674;DHT22;8450;52.654;10.326;2023-05-10T08:00:41;13.10;99.90
16674;DHT22;8450;52.654;10.326;2023-05-10T08:03:07;13.10;99.90
16674;DHT22;8450;52.654;10.326;2023-05-10T08:05:32;13.10;99.90
16674;DHT22;8450;52.654;10.326;2023-05-10T08:07:58;13.10;99.90
16674;DHT22;8450;52.654;10.326;2023-05-10T08:10:24;13.20;99.90
16674;DHT22;8450;52.654;10.326;2023-05-10T08:12:50;13.20;99.90
16674;DHT22;8450;52.654;10.326;2023-05-10T08:15:16;13.20;99.90
16674;DHT22;8450;52.654;10.326;2023-05-10T08:17:42;13.20;99.90
16674;DHT22;8450;52.654;10.326;2023-05-10T08:20:08;13.20;99.90
16674;DHT22;8450;52.654;10.326;2023-05-10T08:22:34;13.20;99.90
16674;DHT22;8450;52.654;10.326;2023-05-10T08:25:00;13.30;99.90
16674;DHT22;8450;52.654;10.326;2023-05-10T08:27:25;13.30;99.90
16674;DHT22;8450;52.654;10.326;2023-05-10T08:29:51;13.30;99.90
16674;DHT22;8450;52.654;10.326;2023-05-10T08:32:17;13.30;99.90
16674;DHT22;8450;52.654;10.326;2023-05-10T08:34:42;13.30;99.90
16674;DHT22;8450;52.654;10.326;2023-05-10T08:37:08;13.30;99.90
16674;DHT22;8450;52.654;10.326;2023-05-10T08:39:34;13.30;99.90
16674;DHT22;8450;52.654;10.326;2023-05-10T08:42:02;13.30;99.90
16674;DHT22;8450;52.654;10.326;2023-05-10T08:44:31;13.30;99.90
16674;DHT22;8450;52.654;10.326;2023-05-10T08:46:57;13.30;99.90
16674;DHT22;8450;52.654;10.326;2023-05-10T08:49:25;13.30;99.90
16674;DHT22;8450;52.654;10.326;2023-05-10T08:51:54;13.30;99.90
16674;DHT22;8450;52.654;10.326;2023-05-10T08:54:21;13.30;99.90
16674;DHT22;8450;52.654;10.326;2023-05-10T08:56:47;13.30;99.90
16674;DHT22;8450;52.654;10.326;2023-05-10T08:59:12;13.30;99.90
16674;DHT22;8450;52.654;10.326;2023-05-10T09:01:40;13.30;99.90
16674;DHT22;8450;52.654;10.326;2023-05-10T09:04:07;13.30;99.90
16674;DHT22;8450;52.654;10.326;2023-05-10T09:06:33;13.30;99.90
16674;DHT22;8450;52.654;10.326;2023-05-10T09:08:59;13.40;99.90
16674;DHT22;8450;52.654;10.326;2023-05-10T09:11:25;13.30;99.90
16674;DHT22;8450;52.654;10.326;2023-05-10T09:13:54;13.40;99.90
16674;DHT22;8450;52.654;10.326;2023-05-10T09:16:20;13.40;99.90
16674;DHT22;8450;52.654;10.326;2023-05-10T09:18:46;13.40;99.90
16674;DHT22;8450;52.654;10.326;2023-05-10T09:21:12;13.40;99.90
16674;DHT22;8450;52.654;10.326;2023-05-10T09:23:37;13.50;99.90
16674;DHT22;8450;52.654;10.326;2023-05-10T09:26:06;13.50;99.90
16674;DHT22;8450;52.654;10.326;2023-05-10T09:31:15;13.60;99.90
16674;DHT22;8450;52.654;10.326;2023-05-10T09:33:45;13.60;99.90
16674;DHT22;8450;52.654;10.326;2023-05-10T09:36:14;13.60;99.90
16674;DHT22;8450;52.654;10.326;2023-05-10T09:38:47;13.60;99.90
16674;DHT22;8450;52.654;10.326;2023-05-10T09:41:23;13.70;99.90
16674;DHT22;8450;52.654;10.326;2023-05-10T09:43:49;13.70;99.90
16674;DHT22;8450;52.654;10.326;2023-05-10T09:46:18;13.80;99.90
16674;DHT22;8450;52.654;10.326;2023-05-10T09:48:45;13.80;99.90
16674;DHT22;8450;52.654;10.326;2023-05-10T09:51:24;13.80;99.90
16674;DHT22;8450;52.654;10.326;2023-05-10T09:54:14;13.90;99.90
16674;DHT22;8450;52.654;10.326;2023-05-10T09:56:40;13.90;99.90
16674;DHT22;8450;52.654;10.326;2023-05-10T09:59:10;13.90;99.90
16674;DHT22;8450;52.654;10.326;2023-05-10T10:01:36;14.00;99.90
16674;DHT22;8450;52.654;10.326;2023-05-10T10:04:06;14.00;99.90
16674;DHT22;8450;52.654;10.326;2023-05-10T10:06:39;14.00;99.90
16674;DHT22;8450;52.654;10.326;2023-05-10T10:09:08;14.10;99.90
16674;DHT22;8450;52.654;10.326;2023-05-10T10:11:35;14.10;99.90
16674;DHT22;8450;52.654;10.326;2023-05-10T10:14:01;14.10;99.90
16674;DHT22;8450;52.654;10.326;2023-05-10T10:16:29;14.20;99.90
16674;DHT22;8450;52.654;10.326;2023-05-10T10:18:56;14.20;99.90
16674;DHT22;8450;52.654;10.326;2023-05-10T10:21:22;14.20;99.90
16674;DHT22;8450;52.654;10.326;2023-05-10T10:23:48;14.30;99.90
16674;DHT22;8450;52.654;10.326;2023-05-10T10:26:14;14.30;99.90
16674;DHT22;8450;52.654;10.326;2023-05-10T10:29:09;14.30;99.90
16674;DHT22;8450;52.654;10.326;2023-05-10T10:31:41;14.30;99.90
16674;DHT22;8450;52.654;10.326;2023-05-10T10:34:10;14.40;99.90
16674;DHT22;8450;52.654;10.326;2023-05-10T10:36:45;14.40;99.90
16674;DHT22;8450;52.654;10.326;2023-05-10T10:39:11;14.40;99.90
16674;DHT22;8450;52.654;10.326;2023-05-10T10:41:57;14.50;99.90
16674;DHT22;8450;52.654;10.326;2023-05-10T10:49:48;14.60;99.90
16674;DHT22;8450;52.654;10.326;2023-05-10T10:55:13;14.70;99.90
16674;DHT22;8450;52.654;10.326;2023-05-10T10:57:44;14.70;99.90
16674;DHT22;8450;52.654;10.326;2023-05-10T11:00:28;14.80;99.90
16674;DHT22;8450;52.654;10.326;2023-05-10T11:05:43;14.80;99.90
16674;DHT22;8450;52.654;10.326;2023-05-10T11:10:54;14.90;99.90
16674;DHT22;8450;52.654;10.326;2023-05-10T11:13:43;14.90;99.90
16674;DHT22;8450;52.654;10.326;2023-05-10T11:16:11;14.90;99.90
16674;DHT22;8450;52.654;10.326;2023-05-10T11:18:37;14.90;99.90
16674;DHT22;8450;52.654;10.326;2023-05-10T11:21:03;14.90;99.90
16674;DHT22;8450;52.654;10.326;2023-05-10T11:23:48;15.00;99.90
16674;DHT22;8450;52.654;10.326;2023-05-10T11:26:15;15.00;99.90
16674;DHT22;8450;52.654;10.326;2023-05-10T11:28:45;15.00;99.90
16674;DHT22;8450;52.654;10.326;2023-05-10T11:31:13;15.00;99.90
16674;DHT22;8450;52.654;10.326;2023-05-10T11:33:52;14.90;99.90
16674;DHT22;8450;52.654;10.326;2023-05-10T11:36:26;15.00;99.90
16674;DHT22;8450;52.654;10.326;2023-05-10T11:38:53;15.00;99.90
16674;DHT22;8450;52.654;10.326;2023-05-10T11:41:19;15.00;99.90
16674;DHT22;8450;52.654;10.326;2023-05-10T11:43:52;15.00;99.90
16674;DHT22;8450;52.654;10.326;2023-05-10T11:46:20;15.00;99.90
16674;DHT22;8450;52.654;10.326;2023-05-10T11:48:47;15.00;99.90
16674;DHT22;8450;52.654;10.326;2023-05-10T11:51:14;15.00;99.90
16674;DHT22;8450;52.654;10.326;2023-05-10T11:53:40;15.00;99.90
16674;DHT22;8450;52.654;10.326;2023-05-10T11:56:06;15.10;99.90
16674;DHT22;8450;52.654;10.326;2023-05-10T11:58:33;15.00;99.90
16674;DHT22;8450;52.654;10.326;2023-05-10T12:00:59;15.10;99.90
16674;DHT22;8450;52.654;10.326;2023-05-10T12:03:25;15.10;99.90
16674;DHT22;8450;52.654;10.326;2023-05-10T12:05:51;15.20;99.90
16674;DHT22;8450;52.654;10.326;2023-05-10T12:08:23;15.20;99.90
16674;DHT22;8450;52.654;10.326;2023-05-10T12:10:49;15.30;99.90
16674;DHT22;8450;52.654;10.326;2023-05-10T12:13:15;15.40;99.90
16674;DHT22;8450;52.654;10.326;2023-05-10T12:15:42;15.40;99.90
16674;DHT22;8450;52.654;10.326;2023-05-10T12:18:09;15.40;99.90
16674;DHT22;8450;52.654;10.326;2023-05-10T12:20:35;15.50;99.90
16674;DHT22;8450;52.654;10.326;2023-05-10T12:23:02;15.50;99.90
16674;DHT22;8450;52.654;10.326;2023-05-10T12:25:36;15.50;99.90
16674;DHT22;8450;52.654;10.326;2023-05-10T12:28:07;15.60;99.90
16674;DHT22;8450;52.654;10.326;2023-05-10T12:30:34;15.70;99.90
16674;DHT22;8450;52.654;10.326;2023-05-10T12:33:09;15.80;99.90
16674;DHT22;8450;52.654;10.326;2023-05-10T12:35:44;15.80;99.90
16674;DHT22;8450;52.654;10.326;2023-05-10T12:38:29;15.90;99.90
16674;DHT22;8450;52.654;10.326;2023-05-10T12:40:58;15.90;99.90
16674;DHT22;8450;52.654;10.326;2023-05-10T12:43:24;15.90;99.90
16674;DHT22;8450;52.654;10.326;2023-05-10T12:45:50;16.00;99.90
16674;DHT22;8450;52.654;10.326;2023-05-10T12:48:16;16.00;99.90
16674;DHT22;8450;52.654;10.326;2023-05-10T12:50:41;16.10;99.90
16674;DHT22;8450;52.654;10.326;2023-05-10T12:53:07;16.10;99.90
16674;DHT22;8450;52.654;10.326;2023-05-10T12:55:32;16.10;99.90
16674;DHT22;8450;52.654;10.326;2023-05-10T12:57:58;16.20;99.90
16674;DHT22;8450;52.654;10.326;2023-05-10T13:00:24;16.30;99.90
16674;DHT22;8450;52.654;10.326;2023-05-10T13:02:49;16.30;99.90
16674;DHT22;8450;52.654;10.326;2023-05-10T13:05:15;16.30;99.90
16674;DHT22;8450;52.654;10.326;2023-05-10T13:07:40;16.40;99.90
16674;DHT22;8450;52.654;10.326;2023-05-10T13:10:06;16.40;99.90
16674;DHT22;8450;52.654;10.326;2023-05-10T13:12:32;16.50;99.90
16674;DHT22;8450;52.654;10.326;2023-05-10T13:14:58;16.50;99.90
16674;DHT22;8450;52.654;10.326;2023-05-10T13:17:25;16.50;99.90
16674;DHT22;8450;52.654;10.326;2023-05-10T13:19:51;16.50;99.90
16674;DHT22;8450;52.654;10.326;2023-05-10T13:22:16;16.60;99.90
16674;DHT22;8450;52.654;10.326;2023-05-10T13:24:42;16.60;99.90
16674;DHT22;8450;52.654;10.326;2023-05-10T13:27:08;16.60;99.90
16674;DHT22;8450;52.654;10.326;2023-05-10T13:29:33;16.70;99.90
16674;DHT22;8450;52.654;10.326;2023-05-10T13:31:59;16.70;99.90
16674;DHT22;8450;52.654;10.326;2023-05-10T13:34:25;16.80;99.90
16674;DHT22;8450;52.654;10.326;2023-05-10T13:36:50;16.80;99.90
16674;DHT22;8450;52.654;10.326;2023-05-10T13:39:16;16.80;99.90
16674;DHT22;8450;52.654;10.326;2023-05-10T13:41:42;16.90;99.90
16674;DHT22;8450;52.654;10.326;2023-05-10T13:44:07;16.90;99.90
16674;DHT22;8450;52.654;10.326;2023-05-10T13:46:33;16.90;99.90
16674;DHT22;8450;52.654;10.326;2023-05-10T13:48:59;17.00;99.90
16674;DHT22;8450;52.654;10.326;2023-05-10T13:51:24;17.00;99.90
16674;DHT22;8450;52.654;10.326;2023-05-10T13:53:50;17.00;99.90
16674;DHT22;8450;52.654;10.326;2023-05-10T13:56:15;17.10;99.90
16674;DHT22;8450;52.654;10.326;2023-05-10T13:58:41;17.10;99.90
16674;DHT22;8450;52.654;10.326;2023-05-10T14:01:07;17.10;99.90
16674;DHT22;8450;52.654;10.326;2023-05-10T14:03:33;17.20;99.90
16674;DHT22;8450;52.654;10.326;2023-05-10T14:05:58;17.20;99.90
16674;DHT22;8450;52.654;10.326;2023-05-10T14:08:24;17.30;99.90
16674;DHT22;8450;52.654;10.326;2023-05-10T14:10:49;17.30;99.90
16674;DHT22;8450;52.654;10.326;2023-05-10T14:13:16;17.30;99.90
16674;DHT22;8450;52.654;10.326;2023-05-10T14:15:41;17.40;99.90
16674;DHT22;8450;52.654;10.326;2023-05-10T14:18:07;17.30;99.90
16674;DHT22;8450;52.654;10.326;2023-05-10T14:20:32;17.30;99.90
16674;DHT22;8450;52.654;10.326;2023-05-10T14:22:59;17.30;99.90
16674;DHT22;8450;52.654;10.326;2023-05-10T14:25:25;17.30;99.90
16674;DHT22;8450;52.654;10.326;2023-05-10T14:27:51;17.30;99.90
16674;DHT22;8450;52.654;10.326;2023-05-10T14:30:16;17.30;99.90
16674;DHT22;8450;52.654;10.326;2023-05-10T14:32:42;17.30;99.90
16674;DHT22;8450;52.654;10.326;2023-05-10T14:35:08;17.30;99.90
16674;DHT22;8450;52.654;10.326;2023-05-10T14:37:34;17.30;99.90
16674;DHT22;8450;52.654;10.326;2023-05-10T14:39:59;17.30;99.90
16674;DHT22;8450;52.654;10.326;2023-05-10T14:42:25;17.30;99.90
16674;DHT22;8450;52.654;10.326;2023-05-10T14:44:51;17.30;99.90
16674;DHT22;8450;52.654;10.326;2023-05-10T14:47:16;17.30;99.90
16674;DHT22;8450;52.654;10.326;2023-05-10T14:49:42;17.30;99.90
16674;DHT22;8450;52.654;10.326;2023-05-10T14:52:08;17.20;99.90
16674;DHT22;8450;52.654;10.326;2023-05-10T14:54:33;17.20;99.90
16674;DHT22;8450;52.654;10.326;2023-05-10T14:56:59;17.10;99.90
16674;DHT22;8450;52.654;10.326;2023-05-10T14:59:25;17.10;99.90
16674;DHT22;8450;52.654;10.326;2023-05-10T15:01:51;17.00;99.90
16674;DHT22;8450;52.654;10.326;2023-05-10T15:04:16;17.00;99.90
16674;DHT22;8450;52.654;10.326;2023-05-10T15:06:42;16.90;99.90
16674;DHT22;8450;52.654;10.326;2023-05-10T15:09:07;16.70;99.90
16674;DHT22;8450;52.654;10.326;2023-05-10T15:11:34;16.60;99.90
16674;DHT22;8450;52.654;10.326;2023-05-10T15:14:00;16.60;99.90
16674;DHT22;8450;52.654;10.326;2023-05-10T15:16:27;16.50;99.90
16674;DHT22;8450;52.654;10.326;2023-05-10T15:18:52;16.40;99.90
16674;DHT22;8450;52.654;10.326;2023-05-10T15:21:18;16.30;99.90
16674;DHT22;8450;52.654;10.326;2023-05-10T15:23:43;16.20;99.90
16674;DHT22;8450;52.654;10.326;2023-05-10T15:26:09;16.10;99.90
16674;DHT22;8450;52.654;10.326;2023-05-10T15:28:35;16.00;99.90
16674;DHT22;8450;52.654;10.326;2023-05-10T15:31:00;15.90;99.90
16674;DHT22;8450;52.654;10.326;2023-05-10T15:33:26;15.80;99.90
16674;DHT22;8450;52.654;10.326;2023-05-10T15:35:53;15.80;99.90
16674;DHT22;8450;52.654;10.326;2023-05-10T15:38:19;15.70;99.90
16674;DHT22;8450;52.654;10.326;2023-05-10T15:40:44;15.70;99.90
16674;DHT22;8450;52.654;10.326;2023-05-10T15:43:10;15.60;99.90
16674;DHT22;8450;52.654;10.326;2023-05-10T15:45:35;15.60;99.90
16674;DHT22;8450;52.654;10.326;2023-05-10T15:48:01;15.50;99.90
16674;DHT22;8450;52.654;10.326;2023-05-10T15:50:26;15.50;99.90
16674;DHT22;8450;52.654;10.326;2023-05-10T15:52:52;15.40;99.90
16674;DHT22;8450;52.654;10.326;2023-05-10T15:55:18;15.40;99.90
16674;DHT22;8450;52.654;10.326;2023-05-10T15:57:44;15.40;99.90
16674;DHT22;8450;52.654;10.326;2023-05-10T16:00:11;15.30;99.90
16674;DHT22;8450;52.654;10.326;2023-05-10T16:02:40;15.30;99.90
16674;DHT22;8450;52.654;10.326;2023-05-10T16:05:06;15.30;99.90
16674;DHT22;8450;52.654;10.326;2023-05-10T16:07:32;15.20;99.90
16674;DHT22;8450;52.654;10.326;2023-05-10T16:09:58;15.20;99.90
16674;DHT22;8450;52.654;10.326;2023-05-10T16:12:24;15.20;99.90
16674;DHT22;8450;52.654;10.326;2023-05-10T16:14:49;15.20;99.90
16674;DHT22;8450;52.654;10.326;2023-05-10T16:17:15;15.10;99.90
16674;DHT22;8450;52.654;10.326;2023-05-10T16:19:40;15.10;99.90
16674;DHT22;8450;52.654;10.326;2023-05-10T16:22:06;15.10;99.90
16674;DHT22;8450;52.654;10.326;2023-05-10T16:24:32;15.10;99.90
16674;DHT22;8450;52.654;10.326;2023-05-10T16:26:58;15.00;99.90
16674;DHT22;8450;52.654;10.326;2023-05-10T16:29:23;15.10;99.90
16674;DHT22;8450;52.654;10.326;2023-05-10T16:31:49;15.00;99.90
16674;DHT22;8450;52.654;10.326;2023-05-10T16:34:14;15.00;99.90
16674;DHT22;8450;52.654;10.326;2023-05-10T16:36:40;15.00;99.90
16674;DHT22;8450;52.654;10.326;2023-05-10T16:39:06;14.90;99.90
16674;DHT22;8450;52.654;10.326;2023-05-10T16:41:33;14.90;99.90
16674;DHT22;8450;52.654;10.326;2023-05-10T16:43:59;14.90;99.90
16674;DHT22;8450;52.654;10.326;2023-05-10T16:46:25;14.90;99.90
16674;DHT22;8450;52.654;10.326;2023-05-10T16:48:51;14.90;99.90
16674;DHT22;8450;52.654;10.326;2023-05-10T16:51:17;14.80;99.90
16674;DHT22;8450;52.654;10.326;2023-05-10T16:53:42;14.80;99.90
16674;DHT22;8450;52.654;10.326;2023-05-10T16:56:09;14.80;99.90
16674;DHT22;8450;52.654;10.326;2023-05-10T16:58:34;14.80;99.90
16674;DHT22;8450;52.654;10.326;2023-05-10T17:01:00;14.80;99.90
16674;DHT22;8450;52.654;10.326;2023-05-10T17:03:26;14.80;99.90
16674;DHT22;8450;52.654;10.326;2023-05-10T17:05:51;14.80;99.90
16674;DHT22;8450;52.654;10.326;2023-05-10T17:08:17;14.80;99.90
16674;DHT22;8450;52.654;10.326;2023-05-10T17:10:42;14.80;99.90
16674;DHT22;8450;52.654;10.326;2023-05-10T17:13:08;14.80;99.90
16674;DHT22;8450;52.654;10.326;2023-05-10T17:15:37;14.80;99.90
16674;DHT22;8450;52.654;10.326;2023-05-10T17:18:03;14.70;99.90
16674;DHT22;8450;52.654;10.326;2023-05-10T17:20:29;14.70;99.90
16674;DHT22;8450;52.654;10.326;2023-05-10T17:22:54;14.70;99.90
16674;DHT22;8450;52.654;10.326;2023-05-10T17:25:20;14.80;99.90
16674;DHT22;8450;52.654;10.326;2023-05-10T17:27:46;14.70;99.90
16674;DHT22;8450;52.654;10.326;2023-05-10T17:30:11;14.70;99.90
16674;DHT22;8450;52.654;10.326;2023-05-10T17:32:37;14.70;99.90
16674;DHT22;8450;52.654;10.326;2023-05-10T17:35:04;14.70;99.90
16674;DHT22;8450;52.654;10.326;2023-05-10T17:37:29;14.70;99.90
16674;DHT22;8450;52.654;10.326;2023-05-10T17:39:58;14.70;99.90
16674;DHT22;8450;52.654;10.326;2023-05-10T17:42:24;14.70;99.90
16674;DHT22;8450;52.654;10.326;2023-05-10T17:44:49;14.70;99.90
16674;DHT22;8450;52.654;10.326;2023-05-10T17:47:16;14.60;99.90
16674;DHT22;8450;52.654;10.326;2023-05-10T17:49:42;14.60;99.90
16674;DHT22;8450;52.654;10.326;2023-05-10T17:52:08;14.60;99.90
16674;DHT22;8450;52.654;10.326;2023-05-10T17:54:33;14.60;99.90
16674;DHT22;8450;52.654;10.326;2023-05-10T17:56:59;14.60;99.90
16674;DHT22;8450;52.654;10.326;2023-05-10T17:59:25;14.60;99.90
16674;DHT22;8450;52.654;10.326;2023-05-10T18:01:51;14.60;99.90
16674;DHT22;8450;52.654;10.326;2023-05-10T18:04:16;14.50;99.90
16674;DHT22;8450;52.654;10.326;2023-05-10T18:06:42;14.50;99.90
16674;DHT22;8450;52.654;10.326;2023-05-10T18:09:08;14.50;99.90
16674;DHT22;8450;52.654;10.326;2023-05-10T18:11:34;14.50;99.90
16674;DHT22;8450;52.654;10.326;2023-05-10T18:14:00;14.50;99.90
